Time;durP1;ratioP1;P1;durP2;ratioP2;P2;SDS_P1;SDS_P2;PMS_P1;PMS_P2;Temp;Humidity;BMP_temperature;BMP_pressure;BME280_temperature;BME280_humidity;BME280_pressure;Samples;Min_cycle;Max_cycle;Signal;HPM_P1;HPM_P2
2022/07/29 00:02:21;;;;;;;8.73;7.93;;;22.40;1.00;;;;;;5023442;28;20446;-66
2022/07/29 00:04:46;;;;;;;9.13;7.80;;;22.40;1.00;;;;;;5008453;28;21219;-66
2022/07/29 00:07:12;;;;;;;11.27;8.60;;;22.50;99.90;;;;;;5007894;28;20295;-67
2022/07/29 00:09:38;;;;;;;8.90;7.60;;;22.50;99.90;;;;;;5007974;28;20223;-68
2022/07/29 00:12:04;;;;;;;8.67;7.87;;;22.30;1.00;;;;;;5008780;28;20171;-68
2022/07/29 00:14:30;;;;;;;9.00;8.23;;;22.30;1.00;;;;;;5008599;28;20177;-68
2022/07/29 00:16:55;;;;;;;9.47;7.77;;;22.40;1.00;;;;;;5010822;28;20828;-67
2022/07/29 00:19:21;;;;;;;12.00;8.30;;;22.50;99.90;;;;;;5010870;28;20760;-66
2022/07/29 00:21:47;;;;;;;10.17;8.50;;;22.40;99.90;;;;;;5012124;28;20211;-65
2022/07/29 00:24:13;;;;;;;10.97;9.87;;;22.20;1.00;;;;;;5011813;28;20164;-67
2022/07/29 00:26:38;;;;;;;10.43;9.53;;;22.10;1.00;;;;;;5012327;28;20171;-67
2022/07/29 00:29:05;;;;;;;13.00;10.20;;;22.00;1.00;;;;;;5011339;28;20191;-66
2022/07/29 00:31:30;;;;;;;19.63;10.43;;;22.00;1.00;;;;;;5010443;28;20620;-66
2022/07/29 00:33:56;;;;;;;10.23;9.23;;;21.90;72.50;;;;;;5018794;28;20435;-67
2022/07/29 00:36:22;;;;;;;11.43;10.40;;;22.00;1.00;;;;;;5030351;28;20251;-67
2022/07/29 00:38:49;;;;;;;15.30;9.87;;;22.00;1.00;;;;;;5030314;28;20191;-67
2022/07/29 00:41:15;;;;;;;13.60;9.57;;;21.90;26.50;;;;;;5031664;28;20520;-68
2022/07/29 00:43:41;;;;;;;12.50;10.10;;;22.00;5.40;;;;;;5029950;28;20402;-67
2022/07/29 00:46:07;;;;;;;10.33;9.23;;;22.00;99.90;;;;;;5011638;28;20407;-67
2022/07/29 00:48:33;;;;;;;10.30;9.10;;;22.10;99.90;;;;;;5009788;28;20961;-68
2022/07/29 00:51:01;;;;;;;12.20;10.93;;;22.20;1.00;;;;;;5011187;28;20246;-69
2022/07/29 00:53:27;;;;;;;11.10;9.93;;;22.10;99.90;;;;;;5018608;28;20203;-67
2022/07/29 00:55:56;;;;;;;11.60;10.50;;;22.10;99.90;;;;;;5031304;28;20433;-68
2022/07/29 00:58:23;;;;;;;11.90;10.20;;;22.10;99.90;;;;;;5030367;28;20441;-68
2022/07/29 01:00:49;;;;;;;14.30;9.70;;;22.10;99.90;;;;;;5031191;28;20457;-68
2022/07/29 01:03:15;;;;;;;14.90;10.40;;;22.10;99.90;;;;;;5018390;28;20419;-67
2022/07/29 01:05:42;;;;;;;10.53;9.60;;;22.20;32.30;;;;;;5011099;28;20513;-67
2022/07/29 01:08:10;;;;;;;12.33;9.87;;;22.20;43.70;;;;;;5010195;28;20639;-66
2022/07/29 01:10:38;;;;;;;13.87;9.70;;;22.20;1.00;;;;;;5011161;28;20427;-66
2022/07/29 01:13:04;;;;;;;14.77;10.60;;;22.20;53.10;;;;;;5011081;28;20407;-67
2022/07/29 01:15:30;;;;;;;13.90;11.37;;;22.20;1.00;;;;;;5010980;28;20474;-68
2022/07/29 01:18:38;;;;;;;9.83;8.93;;;22.10;2.90;;;;;;5010602;28;20458;-66
2022/07/29 01:21:23;;;;;;;10.70;9.70;;;22.20;1.00;;;;;;4993661;28;20271;-67
2022/07/29 01:24:13;;;;;;;12.00;11.00;;;22.20;1.00;;;;;;5011020;28;20404;-68
2022/07/29 01:26:52;;;;;;;13.13;11.87;;;22.10;1.00;;;;;;5010729;28;20410;-67
2022/07/29 01:29:38;;;;;;;12.30;11.20;;;21.80;99.90;;;;;;5009537;28;20911;-67
2022/07/29 01:32:21;;;;;;;13.93;11.00;;;21.90;99.90;;;;;;5010673;28;20415;-68
2022/07/29 01:34:53;;;;;;;10.73;9.67;;;22.00;99.90;;;;;;5021521;28;20405;-68
2022/07/29 01:37:36;;;;;;;12.83;11.53;;;22.00;99.90;;;;;;5029668;28;20922;-68
2022/07/29 01:40:04;;;;;;;11.20;9.63;;;22.00;99.90;;;;;;5029807;28;20451;-67
2022/07/29 01:42:40;;;;;;;14.33;10.80;;;21.90;99.90;;;;;;5029220;28;20434;-68
2022/07/29 01:45:21;;;;;;;21.07;10.50;;;22.10;1.00;;;;;;5017392;28;20716;-67
2022/07/29 01:48:03;;;;;;;12.60;10.30;;;22.20;1.00;;;;;;5010271;28;20431;-67
2022/07/29 01:50:35;;;;;;;11.20;10.20;;;22.20;1.00;;;;;;5009574;28;20490;-68
2022/07/29 01:53:04;;;;;;;11.77;10.73;;;22.20;1.00;;;;;;5014588;28;20907;-67
2022/07/29 01:55:34;;;;;;;10.97;9.80;;;22.20;1.00;;;;;;5030684;28;20497;-67
2022/07/29 01:58:02;;;;;;;15.07;10.90;;;22.20;1.00;;;;;;5029843;28;20437;-66
2022/07/29 02:00:31;;;;;;;11.37;8.97;;;22.20;1.00;;;;;;5029960;28;20476;-67
2022/07/29 02:03:00;;;;;;;10.10;9.17;;;22.20;1.00;;;;;;5020406;28;20411;-67
2022/07/29 02:05:28;;;;;;;14.00;12.60;;;22.20;1.00;;;;;;5009480;28;20493;-66
2022/07/29 02:07:57;;;;;;;13.27;11.57;;;22.20;1.00;;;;;;5010161;28;20934;-66
2022/07/29 02:10:26;;;;;;;11.77;10.60;;;22.20;1.00;;;;;;5009319;28;20418;-67
2022/07/29 02:12:55;;;;;;;12.07;10.97;;;22.10;1.00;;;;;;5010269;28;20416;-66
2022/07/29 02:15:24;;;;;;;12.53;10.97;;;22.10;1.00;;;;;;5009954;28;20807;-67
2022/07/29 02:17:55;;;;;;;11.47;9.70;;;22.10;1.00;;;;;;5009857;28;20520;-67
2022/07/29 02:20:22;;;;;;;18.93;12.33;;;22.20;1.00;;;;;;5008222;28;20439;-67
2022/07/29 02:22:50;;;;;;;16.53;11.23;;;22.20;1.00;;;;;;5010425;28;20446;-68
2022/07/29 02:25:17;;;;;;;15.63;11.50;;;22.10;1.00;;;;;;5009977;28;20407;-69
2022/07/29 02:27:44;;;;;;;12.60;11.40;;;22.00;1.00;;;;;;5009914;28;20462;-67
2022/07/29 02:30:12;;;;;;;10.30;9.40;;;21.90;59.00;;;;;;5009820;28;20403;-68
2022/07/29 02:32:41;;;;;;;13.17;11.97;;;21.90;99.90;;;;;;5014722;28;20905;-67
2022/07/29 02:35:09;;;;;;;10.73;9.77;;;21.80;99.90;;;;;;5020689;28;20402;-67
2022/07/29 02:37:36;;;;;;;11.93;10.93;;;21.80;99.90;;;;;;5028596;28;20476;-68
2022/07/29 02:40:04;;;;;;;13.00;11.10;;;21.80;99.90;;;;;;5028446;28;20489;-67
2022/07/29 02:42:32;;;;;;;11.57;10.10;;;21.80;99.90;;;;;;5029643;28;20741;-66
2022/07/29 02:44:58;;;;;;;13.77;10.73;;;21.80;99.90;;;;;;5017446;28;20411;-67
2022/07/29 02:47:34;;;;;;;16.23;12.60;;;21.80;99.90;;;;;;5009037;28;20420;-67
2022/07/29 02:50:09;;;;;;;18.80;12.33;;;21.70;99.90;;;;;;5008399;28;20172;-67
2022/07/29 02:52:45;;;;;;;20.07;12.97;;;21.60;1.00;;;;;;5009653;28;20418;-66
2022/07/29 02:55:22;;;;;;;13.93;12.77;;;21.50;1.00;;;;;;5029011;28;20409;-66
2022/07/29 02:58:11;;;;;;;12.13;11.10;;;21.40;1.00;;;;;;5028496;28;20499;-66
2022/07/29 03:00:40;;;;;;;19.77;11.40;;;21.40;1.00;;;;;;5021365;28;21398;-66
2022/07/29 03:03:12;;;;;;;14.90;11.30;;;21.40;92.70;;;;;;5017257;28;20767;-68
2022/07/29 03:05:38;;;;;;;12.97;11.40;;;21.50;1.00;;;;;;5008505;28;20407;-68
2022/07/29 03:08:06;;;;;;;13.40;12.10;;;21.50;1.00;;;;;;5008448;28;20431;-67
2022/07/29 03:10:33;;;;;;;16.90;12.10;;;21.50;1.00;;;;;;5008913;28;20482;-67
2022/07/29 03:13:00;;;;;;;14.27;12.00;;;21.40;1.00;;;;;;5009142;28;20942;-66
2022/07/29 03:15:26;;;;;;;15.30;11.40;;;21.50;1.00;;;;;;5008937;28;20403;-68
2022/07/29 03:17:53;;;;;;;23.17;12.67;;;21.50;1.00;;;;;;5008699;28;20447;-67
2022/07/29 03:20:19;;;;;;;13.20;11.80;;;21.50;1.00;;;;;;5007080;28;20549;-67
2022/07/29 03:22:48;;;;;;;13.97;12.17;;;21.30;1.00;;;;;;5009301;28;20482;-68
2022/07/29 03:25:15;;;;;;;15.70;11.50;;;21.20;99.90;;;;;;5009517;28;20171;-68
2022/07/29 03:27:41;;;;;;;25.60;12.47;;;21.10;99.90;;;;;;5009053;28;20573;-69
2022/07/29 03:30:08;;;;;;;17.53;11.00;;;21.00;1.00;;;;;;5009054;28;20407;-67
2022/07/29 03:32:35;;;;;;;12.63;11.43;;;21.00;1.00;;;;;;5014661;28;20432;-67
2022/07/29 03:35:00;;;;;;;22.50;12.80;;;21.00;1.00;;;;;;5020077;28;20419;-66
2022/07/29 03:37:26;;;;;;;24.07;10.90;;;21.00;99.90;;;;;;5027548;28;20497;-66
2022/07/29 03:39:54;;;;;;;14.37;12.97;;;21.00;99.90;;;;;;5008792;28;20755;-65
2022/07/29 03:42:23;;;;;;;18.87;12.33;;;21.00;99.90;;;;;;5009497;28;20191;-66
2022/07/29 03:44:51;;;;;;;15.53;12.80;;;21.00;99.90;;;;;;5021546;28;20418;-67
2022/07/29 03:47:22;;;;;;;14.17;11.30;;;21.00;99.90;;;;;;5031076;28;20418;-67
2022/07/29 03:49:50;;;;;;;19.17;12.43;;;21.00;42.60;;;;;;5030582;28;20402;-66
2022/07/29 03:52:16;;;;;;;27.03;14.37;;;21.00;99.90;;;;;;5031139;28;20403;-68
2022/07/29 03:54:42;;;;;;;20.40;12.43;;;21.00;1.00;;;;;;5031744;28;20434;-67
2022/07/29 03:57:11;;;;;;;25.27;12.90;;;21.00;1.00;;;;;;5032809;28;20403;-67
2022/07/29 03:59:37;;;;;;;23.33;12.60;;;20.90;1.00;;;;;;5034031;28;20568;-67
2022/07/29 04:02:05;;;;;;;24.33;11.53;;;20.90;1.00;;;;;;5029610;28;20399;-66
2022/07/29 04:04:35;;;;;;;12.93;11.57;;;20.90;1.00;;;;;;5009552;28;20403;-66
2022/07/29 04:07:01;;;;;;;19.83;11.83;;;20.80;1.00;;;;;;5008979;28;20422;-67
2022/07/29 04:09:26;;;;;;;27.10;10.70;;;20.70;1.00;;;;;;5008951;28;20494;-66
2022/07/29 04:11:53;;;;;;;11.50;9.90;;;20.70;1.00;;;;;;4992369;28;20180;-67
2022/07/29 04:14:19;;;;;;;33.13;11.30;;;20.80;1.00;;;;;;5009143;28;20244;-67
2022/07/29 04:16:44;;;;;;;24.90;11.87;;;20.70;1.00;;;;;;5010107;28;20875;-68
2022/07/29 04:19:10;;;;;;;10.80;8.97;;;20.90;99.90;;;;;;5030016;22;20216;-66
2022/07/29 04:21:42;;;;;;;24.40;11.50;;;21.00;1.00;;;;;;5007948;28;20208;-65
2022/07/29 04:24:08;;;;;;;13.83;9.03;;;20.90;1.00;;;;;;5008091;28;20165;-65
2022/07/29 04:26:34;;;;;;;14.83;9.37;;;21.00;1.00;;;;;;5008273;28;20426;-65
2022/07/29 04:29:00;;;;;;;13.00;8.40;;;21.20;1.00;;;;;;5007243;28;20303;-66
2022/07/29 04:31:26;;;;;;;10.83;8.63;;;21.20;99.90;;;;;;5008349;28;20787;-65
2022/07/29 04:33:51;;;;;;;12.63;9.10;;;21.10;99.90;;;;;;5007383;28;20531;-64
2022/07/29 04:36:17;;;;;;;12.60;8.93;;;21.00;99.90;;;;;;5001015;28;20177;-64
2022/07/29 04:38:43;;;;;;;8.90;8.10;;;21.00;99.90;;;;;;5005390;28;20210;-65
2022/07/29 04:41:09;;;;;;;15.20;8.63;;;21.20;99.90;;;;;;5008129;28;20175;-66
2022/07/29 04:43:35;;;;;;;12.47;8.40;;;21.50;74.90;;;;;;5021863;28;20223;-65
2022/07/29 04:46:03;;;;;;;20.73;10.13;;;21.50;1.00;;;;;;5009419;28;20227;-65
2022/07/29 04:48:28;;;;;;;10.63;8.60;;;21.40;99.90;;;;;;5004790;28;20467;-66
2022/07/29 04:50:55;;;;;;;23.83;10.73;;;21.50;99.90;;;;;;5008617;28;20443;-64
2022/07/29 04:53:21;;;;;;;13.97;7.60;;;21.60;1.00;;;;;;5012730;28;20179;-66
2022/07/29 04:55:46;;;;;;;18.20;8.43;;;21.60;1.00;;;;;;5027437;28;20406;-65
2022/07/29 04:58:12;;;;;;;20.37;7.10;;;21.60;1.00;;;;;;5023145;28;20227;-65
2022/07/29 05:00:38;;;;;;;8.53;5.30;;;21.70;1.00;;;;;;5015720;28;20207;-66
2022/07/29 05:03:04;;;;;;;11.43;6.57;;;22.00;1.00;;;;;;5000966;28;20180;-65
2022/07/29 05:05:30;;;;;;;10.50;6.70;;;22.10;1.00;;;;;;5009167;28;20428;-65
2022/07/29 05:07:56;;;;;;;15.17;7.07;;;22.00;1.00;;;;;;5009998;28;20247;-67
2022/07/29 05:10:22;;;;;;;23.73;7.40;;;21.70;1.00;;;;;;5009935;28;20259;-65
2022/07/29 05:12:48;;;;;;;16.00;10.30;;;21.80;1.00;;;;;;5010203;28;21213;-66
2022/07/29 05:15:14;;;;;;;18.03;10.97;;;21.70;1.00;;;;;;5004854;28;20172;-64
2022/07/29 05:17:40;;;;;;;12.90;11.30;;;21.60;99.90;;;;;;5003736;28;20942;-65
2022/07/29 05:20:06;;;;;;;18.23;11.57;;;21.60;99.90;;;;;;5006131;28;20204;-66
2022/07/29 05:22:32;;;;;;;22.70;11.93;;;21.70;99.90;;;;;;5007429;28;20553;-66
2022/07/29 05:24:58;;;;;;;26.93;12.67;;;22.10;1.00;;;;;;5004825;28;20411;-66
2022/07/29 05:27:23;;;;;;;12.07;10.90;;;22.20;1.00;;;;;;5005314;28;20251;-66
2022/07/29 05:29:49;;;;;;;32.70;13.43;;;22.00;1.00;;;;;;5004778;28;20196;-65
2022/07/29 05:32:15;;;;;;;17.47;11.33;;;21.60;99.90;;;;;;5005483;28;20200;-65
2022/07/29 05:34:41;;;;;;;21.47;12.27;;;21.60;99.90;;;;;;5006027;28;20279;-65
2022/07/29 05:37:07;;;;;;;22.70;11.27;;;21.70;99.90;;;;;;5005051;28;20295;-67
2022/07/29 05:39:32;;;;;;;18.93;11.03;;;22.00;11.60;;;;;;5005615;28;20508;-64
2022/07/29 05:41:58;;;;;;;15.10;11.07;;;22.10;1.00;;;;;;5020796;28;20190;-65
2022/07/29 05:44:24;;;;;;;19.93;11.07;;;22.20;1.00;;;;;;5008996;28;20259;-65
2022/07/29 05:46:50;;;;;;;29.73;11.53;;;22.20;1.00;;;;;;5005822;28;20175;-65
2022/07/29 05:49:15;;;;;;;14.43;9.80;;;22.20;1.00;;;;;;5005060;28;20680;-65
2022/07/29 05:51:41;;;;;;;39.33;10.43;;;22.60;1.00;;;;;;5005708;28;20208;-65
2022/07/29 05:54:07;;;;;;;33.33;10.50;;;22.90;1.00;;;;;;5007859;28;20195;-65
2022/07/29 05:56:33;;;;;;;20.03;9.00;;;22.60;1.00;;;;;;5006238;28;20255;-64
2022/07/29 05:58:59;;;;;;;11.50;9.47;;;21.80;99.90;;;;;;5000042;28;20196;-63
2022/07/29 06:01:24;;;;;;;16.63;8.20;;;21.60;99.90;;;;;;5003354;28;20202;-64
2022/07/29 06:03:50;;;;;;;17.93;9.57;;;21.60;99.90;;;;;;5005716;28;20286;-64
2022/07/29 06:06:16;;;;;;;22.93;8.87;;;21.70;99.90;;;;;;5006839;28;20199;-64
2022/07/29 06:08:41;;;;;;;14.43;8.63;;;21.80;99.90;;;;;;5005964;28;20201;-64
2022/07/29 06:11:08;;;;;;;10.63;8.47;;;21.80;84.80;;;;;;5006747;28;20588;-62
2022/07/29 06:13:34;;;;;;;10.90;9.43;;;21.40;1.00;;;;;;5006350;28;20305;-65
2022/07/29 06:15:59;;;;;;;11.87;8.17;;;21.40;1.00;;;;;;5006309;28;20460;-66
2022/07/29 06:18:25;;;;;;;11.93;8.30;;;21.40;1.00;;;;;;5001209;28;20610;-67
2022/07/29 06:20:51;;;;;;;9.97;8.97;;;20.90;13.00;;;;;;4997721;28;20221;-64
2022/07/29 06:23:18;;;;;;;12.40;8.50;;;20.90;1.00;;;;;;4986813;28;20184;-66
2022/07/29 06:25:43;;;;;;;12.90;9.40;;;20.90;99.90;;;;;;4987288;28;20544;-64
2022/07/29 06:28:09;;;;;;;16.03;8.27;;;20.80;99.90;;;;;;4985644;28;20440;-66
2022/07/29 06:30:35;;;;;;;9.53;7.20;;;20.70;1.00;;;;;;4986499;28;20243;-65
2022/07/29 06:33:01;;;;;;;8.50;7.37;;;20.80;1.00;;;;;;4985522;28;20173;-66
2022/07/29 06:35:27;;;;;;;9.07;7.50;;;21.00;1.00;;;;;;4981971;28;20198;-66
2022/07/29 06:37:53;;;;;;;13.93;9.57;;;21.00;1.00;;;;;;4980917;28;20425;-67
2022/07/29 06:43:03;;;;;;;20.07;8.80;;;21.10;99.90;;;;;;4987878;28;20226;-66
2022/07/29 06:45:29;;;;;;;12.50;7.83;;;21.40;99.90;;;;;;4988076;28;20614;-66
2022/07/29 06:47:55;;;;;;;11.30;8.30;;;21.70;1.00;;;;;;4988869;28;20674;-67
2022/07/29 06:50:21;;;;;;;14.10;7.53;;;21.70;99.90;;;;;;4987693;28;20177;-67
2022/07/29 06:52:47;;;;;;;12.40;8.07;;;21.70;99.90;;;;;;4988579;28;20583;-66
2022/07/29 06:55:14;;;;;;;11.33;6.90;;;21.80;99.90;;;;;;4988268;28;20486;-67
2022/07/29 06:57:39;;;;;;;33.87;8.77;;;21.80;76.00;;;;;;4988215;28;20519;-66
2022/07/29 07:00:06;;;;;;;19.90;9.10;;;21.80;66.40;;;;;;4987734;28;20937;-67
2022/07/29 07:02:32;;;;;;;13.43;8.63;;;21.70;99.90;;;;;;4987617;28;20495;-64
2022/07/29 07:04:58;;;;;;;11.93;8.60;;;21.70;99.90;;;;;;4987127;28;20415;-66
2022/07/29 07:07:24;;;;;;;10.43;8.50;;;21.70;99.90;;;;;;4987644;28;20227;-66
2022/07/29 07:09:50;;;;;;;11.60;9.00;;;21.70;99.90;;;;;;4987722;28;20451;-66
2022/07/29 07:12:16;;;;;;;13.73;8.87;;;21.60;1.00;;;;;;4987959;28;20416;-66
2022/07/29 07:14:42;;;;;;;15.37;9.27;;;21.60;1.00;;;;;;4981702;28;20239;-66
2022/07/29 07:17:08;;;;;;;12.00;8.77;;;21.40;1.00;;;;;;4978090;28;20270;-65
2022/07/29 07:19:33;;;;;;;23.47;9.57;;;21.30;1.00;;;;;;4981392;28;20201;-66
2022/07/29 07:21:59;;;;;;;39.50;10.10;;;21.30;1.00;;;;;;4981997;28;20264;-66
2022/07/29 07:24:25;;;;;;;7.70;7.00;;;21.50;1.00;;;;;;4988359;28;20173;-66
2022/07/29 07:26:51;;;;;;;12.70;8.37;;;21.70;99.90;;;;;;4970137;28;20227;-66
2022/07/29 07:29:17;;;;;;;27.17;10.30;;;21.80;99.90;;;;;;4984283;28;20193;-66
2022/07/29 07:31:42;;;;;;;10.17;9.10;;;21.80;99.90;;;;;;4987863;28;20191;-63
2022/07/29 07:34:09;;;;;;;15.63;8.37;;;21.90;99.90;;;;;;4984711;28;20569;-63
2022/07/29 07:36:34;;;;;;;13.67;6.83;;;21.60;99.90;;;;;;4987535;28;20224;-63
2022/07/29 07:39:00;;;;;;;12.73;8.40;;;21.80;99.90;;;;;;4986517;28;20443;-64
2022/07/29 07:41:26;;;;;;;9.43;7.97;;;22.00;99.90;;;;;;4985273;28;20578;-64
2022/07/29 07:43:52;;;;;;;11.23;9.57;;;21.80;99.90;;;;;;4984552;28;20551;-65
2022/07/29 07:46:17;;;;;;;14.23;7.20;;;21.80;99.90;;;;;;4987944;28;20175;-64
2022/07/29 07:48:44;;;;;;;9.40;7.90;;;22.00;99.90;;;;;;4986602;28;20288;-65
2022/07/29 07:51:09;;;;;;;26.30;8.73;;;22.10;99.90;;;;;;4987488;28;20177;-64
2022/07/29 07:53:35;;;;;;;10.07;7.90;;;22.10;99.90;;;;;;4987092;28;20474;-64
2022/07/29 07:56:01;;;;;;;17.83;7.57;;;22.40;1.00;;;;;;4987067;28;20282;-63
2022/07/29 07:58:26;;;;;;;13.97;8.33;;;22.50;1.00;;;;;;4985798;28;20276;-65
2022/07/29 08:00:52;;;;;;;9.50;6.93;;;22.60;1.00;;;;;;4987495;28;20204;-65
2022/07/29 08:03:18;;;;;;;10.80;6.70;;;22.40;1.00;;;;;;4985040;28;20905;-65
2022/07/29 08:05:44;;;;;;;11.80;6.40;;;22.50;1.00;;;;;;4985385;28;20173;-65
2022/07/29 08:08:10;;;;;;;7.23;6.13;;;22.50;1.00;;;;;;4984565;28;20203;-64
2022/07/29 08:13:22;;;;;;;15.50;7.30;;;22.60;1.00;;;;;;4987307;28;20184;-64
2022/07/29 08:15:57;;;;;;;11.17;6.00;;;22.60;1.00;;;;;;4986536;28;20424;-64
2022/07/29 08:18:24;;;;;;;25.37;7.83;;;22.80;1.00;;;;;;4985905;28;20501;-65
2022/07/29 08:20:50;;;;;;;8.87;5.70;;;23.20;1.00;;;;;;4987373;28;20477;-65
2022/07/29 08:23:16;;;;;;;10.17;6.17;;;23.50;1.00;;;;;;4959571;28;20416;-64
2022/07/29 08:25:41;;;;;;;7.00;4.50;;;23.90;1.00;;;;;;4977955;28;20296;-64
2022/07/29 08:28:08;;;;;;;23.23;6.60;;;24.10;1.00;;;;;;4978282;28;20200;-65
2022/07/29 08:30:34;;;;;;;19.77;6.23;;;24.50;99.90;;;;;;4980076;28;20184;-64
2022/07/29 08:33:00;;;;;;;11.03;5.90;;;24.60;99.90;;;;;;4981643;28;20548;-64
2022/07/29 08:35:25;;;;;;;13.07;5.87;;;24.40;99.90;;;;;;4979027;28;20559;-65
2022/07/29 08:37:52;;;;;;;8.83;5.37;;;24.40;99.90;;;;;;4984706;28;20177;-64
2022/07/29 08:40:24;;;;;;;5.70;4.90;;;24.60;99.90;;;;;;4986399;28;20576;-64
2022/07/29 08:42:50;;;;;;;10.20;5.43;;;24.90;99.90;;;;;;4983589;28;20404;-65
2022/07/29 08:45:15;;;;;;;5.87;4.70;;;24.80;99.90;;;;;;4992476;28;20530;-65
2022/07/29 08:47:43;;;;;;;7.63;5.20;;;24.80;99.90;;;;;;4987811;28;20506;-65
2022/07/29 08:50:10;;;;;;;7.73;4.27;;;24.70;99.90;;;;;;4981065;28;20280;-64
2022/07/29 08:52:39;;;;;;;6.70;4.90;;;24.80;99.90;;;;;;4984104;28;20462;-66
2022/07/29 08:55:06;;;;;;;13.00;4.60;;;25.00;99.90;;;;;;4985005;28;20932;-67
2022/07/29 08:57:33;;;;;;;14.70;5.47;;;25.00;99.90;;;;;;4987185;28;20420;-67
2022/07/29 09:00:00;;;;;;;11.90;6.70;;;25.20;99.90;;;;;;4996174;28;20490;-68
2022/07/29 09:02:32;;;;;;;7.63;5.00;;;25.30;99.90;;;;;;4987876;28;20519;-68
2022/07/29 09:05:01;;;;;;;19.80;5.90;;;25.40;99.90;;;;;;4986113;28;20416;-66
2022/07/29 09:07:27;;;;;;;16.20;5.50;;;25.50;99.90;;;;;;4985591;28;20420;-67
2022/07/29 09:09:53;;;;;;;7.60;4.80;;;25.70;99.90;;;;;;4990207;28;20450;-67
2022/07/29 09:12:22;;;;;;;7.80;6.10;;;25.80;99.90;;;;;;4990185;28;20430;-68
2022/07/29 09:14:48;;;;;;;5.73;4.53;;;25.90;99.90;;;;;;4987689;28;20427;-67
2022/07/29 09:17:16;;;;;;;26.53;6.40;;;26.00;99.90;;;;;;4990735;28;20423;-71
2022/07/29 09:19:42;;;;;;;4.87;4.47;;;25.70;99.90;;;;;;4984813;28;20201;-67
2022/07/29 09:22:09;;;;;;;8.93;5.50;;;25.90;99.90;;;;;;4985560;28;20421;-68
2022/07/29 09:24:41;;;;;;;6.57;4.50;;;26.10;99.90;;;;;;4986385;28;20207;-65
2022/07/29 09:27:26;;;;;;;13.40;5.40;;;25.80;99.90;;;;;;4972146;28;20953;-66
2022/07/29 09:30:13;;;;;;;17.17;5.93;;;25.90;99.90;;;;;;4983520;28;21034;-67
2022/07/29 09:33:02;;;;;;;10.43;5.13;;;25.80;99.90;;;;;;4985753;28;20428;-66
2022/07/29 09:35:30;;;;;;;11.17;5.90;;;25.50;99.90;;;;;;4987998;28;20452;-68
2022/07/29 09:37:56;;;;;;;13.07;6.10;;;25.50;99.90;;;;;;4985472;28;20523;-66
2022/07/29 09:40:27;;;;;;;10.93;5.73;;;25.90;99.90;;;;;;4987181;28;20469;-67
2022/07/29 09:42:56;;;;;;;11.40;5.60;;;26.20;99.90;;;;;;4982939;28;20434;-67
2022/07/29 09:45:31;;;;;;;6.20;4.90;;;26.10;99.90;;;;;;4987655;28;20536;-66
2022/07/29 09:48:00;;;;;;;12.57;6.13;;;26.10;99.90;;;;;;4981173;28;20745;-65
2022/07/29 09:50:37;;;;;;;9.43;5.80;;;26.40;99.90;;;;;;4983579;28;20509;-66
2022/07/29 09:53:03;;;;;;;16.57;6.73;;;26.40;99.90;;;;;;4985841;28;20442;-68
2022/07/29 09:55:29;;;;;;;6.27;5.63;;;26.40;99.90;;;;;;4985888;28;20924;-66
2022/07/29 09:58:15;;;;;;;9.13;5.00;;;26.40;99.90;;;;;;4981948;28;20563;-66
2022/07/29 10:00:42;;;;;;;8.30;5.50;;;26.20;99.90;;;;;;4984926;28;20275;-66
2022/07/29 10:03:08;;;;;;;10.10;5.33;;;26.00;99.90;;;;;;4986174;28;20899;-66
2022/07/29 10:05:34;;;;;;;9.40;5.60;;;26.10;99.90;;;;;;4985314;28;20610;-66
2022/07/29 10:08:01;;;;;;;7.30;5.57;;;26.30;99.90;;;;;;4982039;28;20187;-66
2022/07/29 10:10:30;;;;;;;8.03;4.90;;;26.40;99.90;;;;;;4988804;28;20267;-67
2022/07/29 10:13:04;;;;;;;7.00;5.37;;;26.50;99.90;;;;;;4984337;28;20780;-66
2022/07/29 10:15:32;;;;;;;16.87;6.00;;;26.60;99.90;;;;;;4985547;28;20462;-66
2022/07/29 10:17:59;;;;;;;16.17;6.50;;;26.70;99.90;;;;;;4983198;28;20420;-66
2022/07/29 10:20:27;;;;;;;10.70;5.90;;;26.70;99.90;;;;;;4983353;28;20451;-66
2022/07/29 10:22:53;;;;;;;10.23;5.50;;;26.80;99.90;;;;;;4985292;28;20799;-67
2022/07/29 10:25:20;;;;;;;8.73;5.43;;;26.80;99.90;;;;;;4983418;28;20427;-65
2022/07/29 10:27:47;;;;;;;19.10;5.60;;;27.00;99.90;;;;;;4982547;28;20415;-67
2022/07/29 10:30:16;;;;;;;9.70;5.60;;;26.70;99.90;;;;;;4982238;28;20526;-66
2022/07/29 10:33:00;;;;;;;9.20;5.03;;;26.40;99.90;;;;;;4983421;28;20431;-65
2022/07/29 10:35:49;;;;;;;8.27;5.07;;;26.20;99.90;;;;;;4980636;28;20416;-66
2022/07/29 10:38:33;;;;;;;14.60;5.50;;;26.00;99.90;;;;;;4982197;28;20811;-65
2022/07/29 10:41:26;;;;;;;8.10;5.13;;;25.80;99.90;;;;;;4987970;28;20447;-67
2022/07/29 10:44:14;;;;;;;7.43;5.00;;;25.60;99.90;;;;;;4988489;28;20518;-66
2022/07/29 10:46:41;;;;;;;9.70;5.33;;;25.30;99.90;;;;;;4982154;28;20419;-67
2022/07/29 10:49:09;;;;;;;19.43;5.33;;;25.30;99.90;;;;;;4979012;28;20432;-67
2022/07/29 10:51:58;;;;;;;7.87;5.00;;;25.20;99.90;;;;;;4988360;28;20407;-67
2022/07/29 10:54:36;;;;;;;13.10;5.50;;;25.10;99.90;;;;;;4985936;28;21003;-65
2022/07/29 10:57:21;;;;;;;28.00;6.73;;;25.20;99.90;;;;;;4982714;28;20466;-67
2022/07/29 11:00:10;;;;;;;11.73;6.53;;;25.10;99.90;;;;;;4979949;28;20482;-67
2022/07/29 11:02:44;;;;;;;5.93;4.67;;;25.30;99.90;;;;;;4967664;28;20424;-67
2022/07/29 11:05:17;;;;;;;8.43;4.57;;;25.50;99.90;;;;;;4982714;28;20495;-66
2022/07/29 11:08:17;;;;;;;9.43;4.43;;;25.60;99.90;;;;;;4981569;28;20504;-67
2022/07/29 11:10:43;;;;;;;11.20;5.40;;;25.60;99.90;;;;;;4982133;28;20427;-67
2022/07/29 11:13:09;;;;;;;11.53;5.30;;;25.50;99.90;;;;;;4982153;28;20464;-67
2022/07/29 11:16:07;;;;;;;14.13;5.70;;;25.40;99.90;;;;;;4981306;28;20198;-67
2022/07/29 11:18:33;;;;;;;13.30;5.63;;;25.40;99.90;;;;;;4935714;28;20555;-67
2022/07/29 11:20:59;;;;;;;6.93;4.97;;;25.50;99.90;;;;;;4978669;28;20543;-66
2022/07/29 11:23:35;;;;;;;5.70;4.63;;;25.50;99.90;;;;;;4981151;28;20172;-65
2022/07/29 11:26:16;;;;;;;7.80;4.47;;;25.40;99.90;;;;;;4979904;28;20424;-66
2022/07/29 11:29:16;;;;;;;6.50;4.90;;;25.60;99.90;;;;;;4979403;28;20851;-67
2022/07/29 11:31:46;;;;;;;20.27;6.00;;;25.70;99.90;;;;;;4981572;28;20468;-66
2022/07/29 11:34:22;;;;;;;18.50;5.63;;;25.70;99.90;;;;;;4979508;28;20444;-67
2022/07/29 11:37:21;;;;;;;8.73;5.10;;;25.70;99.90;;;;;;4982843;28;20414;-66
2022/07/29 11:39:52;;;;;;;7.47;4.97;;;25.60;99.90;;;;;;4939616;28;20467;-66
2022/07/29 11:42:24;;;;;;;14.37;4.90;;;25.60;99.90;;;;;;4978547;28;20854;-66
2022/07/29 11:45:09;;;;;;;8.23;4.80;;;25.50;99.90;;;;;;4981193;28;20783;-67
2022/07/29 11:47:45;;;;;;;4.57;4.03;;;25.40;99.90;;;;;;4979528;28;20542;-66
2022/07/29 11:50:13;;;;;;;6.30;4.17;;;25.30;99.90;;;;;;4979441;28;20831;-66
2022/07/29 11:52:47;;;;;;;11.37;4.50;;;25.30;99.90;;;;;;4980736;28;20515;-65
2022/07/29 11:55:19;;;;;;;14.50;5.30;;;25.30;99.90;;;;;;4981166;28;20435;-65
2022/07/29 11:57:59;;;;;;;7.50;4.67;;;25.20;99.90;;;;;;4979698;28;20786;-65
2022/07/29 12:00:37;;;;;;;6.37;5.17;;;25.20;99.90;;;;;;4981927;28;20459;-65
2022/07/29 12:03:06;;;;;;;6.90;4.37;;;25.10;99.90;;;;;;4979772;28;20413;-65
2022/07/29 12:05:42;;;;;;;7.13;4.13;;;25.10;99.90;;;;;;4979507;28;20489;-65
2022/07/29 12:08:11;;;;;;;10.37;4.23;;;25.10;99.90;;;;;;4979290;28;20883;-65
2022/07/29 12:10:38;;;;;;;15.87;5.00;;;25.10;99.90;;;;;;4985550;28;20806;-65
2022/07/29 12:13:04;;;;;;;12.27;5.07;;;25.10;99.90;;;;;;4987923;28;20440;-66
2022/07/29 12:15:30;;;;;;;29.97;6.10;;;25.20;99.90;;;;;;4991340;28;20462;-66
2022/07/29 12:17:56;;;;;;;8.10;5.07;;;25.30;99.90;;;;;;4967548;28;20812;-66
2022/07/29 12:20:24;;;;;;;16.03;4.60;;;25.40;99.90;;;;;;4983651;28;20653;-67
2022/07/29 12:22:50;;;;;;;13.17;4.80;;;25.40;99.90;;;;;;4983255;28;20181;-66
2022/07/29 12:25:16;;;;;;;12.87;5.60;;;25.60;99.90;;;;;;4985041;28;20713;-67
2022/07/29 12:27:45;;;;;;;6.40;4.50;;;25.70;99.90;;;;;;4991338;28;20583;-66
2022/07/29 12:30:16;;;;;;;8.00;5.20;;;25.60;99.90;;;;;;4967299;28;20439;-66
2022/07/29 12:32:45;;;;;;;10.17;5.00;;;25.50;99.90;;;;;;4987519;28;20582;-65
2022/07/29 12:35:17;;;;;;;6.20;4.80;;;25.70;99.90;;;;;;4984147;28;20478;-64
2022/07/29 12:37:44;;;;;;;6.77;5.37;;;25.80;99.90;;;;;;4986196;28;20898;-65
2022/07/29 12:40:13;;;;;;;15.87;5.63;;;26.10;99.90;;;;;;4984440;28;20447;-67
2022/07/29 12:42:39;;;;;;;7.70;5.17;;;26.20;99.90;;;;;;4987153;28;20450;-67
2022/07/29 12:45:06;;;;;;;5.27;4.50;;;26.30;99.90;;;;;;4984511;28;20797;-66
2022/07/29 12:47:32;;;;;;;7.47;5.23;;;25.90;99.90;;;;;;4984747;28;20438;-66
2022/07/29 12:50:17;;;;;;;6.30;5.17;;;25.80;99.90;;;;;;4981607;28;21036;-67
2022/07/29 12:52:44;;;;;;;30.10;6.80;;;26.00;99.90;;;;;;4986754;28;20432;-67
2022/07/29 12:55:11;;;;;;;15.57;6.57;;;26.10;99.90;;;;;;4989435;28;20515;-67
2022/07/29 12:57:48;;;;;;;15.73;6.50;;;26.10;99.90;;;;;;4990112;28;20427;-66